Time;durP1;ratioP1;P1;durP2;ratioP2;P2;SDS_P1;SDS_P2;PMS_P1;PMS_P2;Temp;Humidity;BMP_temperature;BMP_pressure;BME280_temperature;BME280_humidity;BME280_pressure;Samples;Min_cycle;Max_cycle;Signal;HPM_P1;HPM_P2
2022/02/13 00:00:43;;;;;;;10.00;6.25;;;3.00;74.00;;;;;;5051509;28;20434;-61
2022/02/13 00:03:09;;;;;;;8.20;5.78;;;3.10;74.10;;;;;;5054300;28;20104;-61
2022/02/13 00:05:35;;;;;;;8.13;5.63;;;3.00;74.00;;;;;;5051387;28;20537;-61
2022/02/13 00:08:00;;;;;;;9.05;5.28;;;3.00;74.10;;;;;;5054443;28;20124;-61
2022/02/13 00:10:27;;;;;;;7.72;5.50;;;3.00;74.10;;;;;;5054885;28;20481;-61
2022/02/13 00:12:52;;;;;;;7.25;5.47;;;3.00;74.10;;;;;;5054424;28;20025;-61
2022/02/13 00:15:18;;;;;;;8.00;6.15;;;3.00;74.10;;;;;;5054370;28;20367;-61
2022/02/13 00:17:44;;;;;;;8.07;5.95;;;3.00;74.10;;;;;;5054423;28;20119;-61
2022/02/13 00:20:10;;;;;;;8.88;4.82;;;3.00;74.10;;;;;;5054461;28;20028;-61
2022/02/13 00:22:35;;;;;;;9.18;5.10;;;3.00;74.20;;;;;;5054379;28;20025;-61
2022/02/13 00:25:01;;;;;;;8.70;5.55;;;2.90;74.20;;;;;;5054073;28;20403;-61
2022/02/13 00:27:27;;;;;;;8.05;5.45;;;2.90;74.20;;;;;;5054313;28;20029;-61
2022/02/13 00:29:53;;;;;;;6.63;5.25;;;2.90;74.20;;;;;;5054517;28;20090;-61
2022/02/13 00:32:21;;;;;;;8.18;5.55;;;2.90;74.20;;;;;;5054240;28;20419;-61
2022/02/13 00:34:47;;;;;;;10.38;5.15;;;2.90;74.20;;;;;;5053833;28;20064;-61
2022/02/13 00:37:13;;;;;;;7.68;4.93;;;2.80;74.20;;;;;;5054293;28;20029;-61
2022/02/13 00:39:38;;;;;;;5.90;4.82;;;2.80;74.10;;;;;;5053541;28;20350;-61
2022/02/13 00:42:05;;;;;;;13.27;5.35;;;2.80;74.20;;;;;;5054198;28;20032;-61
2022/02/13 00:44:30;;;;;;;8.73;5.55;;;2.80;74.10;;;;;;5054137;28;20025;-61
2022/02/13 00:46:56;;;;;;;7.88;4.88;;;2.80;74.20;;;;;;5054130;28;20227;-61
2022/02/13 00:49:22;;;;;;;7.78;4.78;;;2.80;74.10;;;;;;5049462;28;20040;-61
2022/02/13 00:51:49;;;;;;;7.70;5.05;;;2.80;74.00;;;;;;5057747;28;20020;-61
2022/02/13 00:54:14;;;;;;;9.57;5.35;;;2.80;74.00;;;;;;5059673;28;20041;-61
2022/02/13 00:56:40;;;;;;;10.10;6.38;;;2.80;74.00;;;;;;5060630;28;20041;-61
2022/02/13 00:59:06;;;;;;;9.90;5.53;;;2.80;74.00;;;;;;5072776;28;20473;-61
2022/02/13 01:01:31;;;;;;;6.80;5.40;;;2.80;73.90;;;;;;5059928;28;20388;-61
2022/02/13 01:03:57;;;;;;;8.60;5.68;;;2.80;73.90;;;;;;5073490;28;20025;-61
2022/02/13 01:06:24;;;;;;;9.32;5.78;;;2.80;73.90;;;;;;5061564;28;20079;-61
2022/02/13 01:08:50;;;;;;;9.93;6.35;;;2.80;73.90;;;;;;5061876;28;20485;-61
2022/02/13 01:11:15;;;;;;;8.18;5.38;;;2.90;73.90;;;;;;5073301;28;20028;-61
2022/02/13 01:13:44;;;;;;;8.60;6.50;;;2.90;73.90;;;;;;5073281;28;20098;-61
2022/02/13 01:16:10;;;;;;;8.68;5.85;;;2.90;73.70;;;;;;5073458;28;20039;-61
2022/02/13 01:18:36;;;;;;;10.70;6.85;;;3.00;73.60;;;;;;5073163;28;20539;-61
2022/02/13 01:21:02;;;;;;;9.38;6.82;;;3.00;73.40;;;;;;5073172;28;20055;-61
2022/02/13 01:23:28;;;;;;;13.50;8.00;;;3.10;73.30;;;;;;5056483;28;20064;-61
2022/02/13 01:25:53;;;;;;;10.35;6.38;;;3.10;73.00;;;;;;5063570;28;20409;-61
2022/02/13 01:28:19;;;;;;;11.93;7.05;;;3.10;73.10;;;;;;5072602;28;20031;-61
2022/02/13 01:30:46;;;;;;;10.50;7.05;;;3.10;73.00;;;;;;5064189;28;20040;-60
2022/02/13 01:33:12;;;;;;;12.43;7.82;;;3.10;72.80;;;;;;5053393;28;20091;-61
2022/02/13 01:35:38;;;;;;;9.43;7.32;;;3.20;72.70;;;;;;5052737;28;20049;-61
2022/02/13 01:38:04;;;;;;;11.20;7.28;;;3.20;72.50;;;;;;5052781;28;20032;-61
2022/02/13 01:40:29;;;;;;;9.27;6.25;;;3.20;72.60;;;;;;5052852;28;20032;-61
2022/02/13 01:42:55;;;;;;;9.57;7.20;;;3.10;72.40;;;;;;5052668;28;20100;-61
2022/02/13 01:45:21;;;;;;;8.52;6.05;;;3.10;72.60;;;;;;5063548;28;20032;-61
2022/02/13 01:47:46;;;;;;;8.63;5.82;;;3.10;72.60;;;;;;5073199;28;20100;-61
2022/02/13 01:50:12;;;;;;;12.00;7.22;;;3.00;72.80;;;;;;5062837;28;20025;-61
2022/02/13 01:52:40;;;;;;;10.27;6.50;;;3.00;73.00;;;;;;5051746;28;20075;-61
2022/02/13 01:55:06;;;;;;;10.68;6.15;;;3.00;72.90;;;;;;5048535;28;20048;-61
2022/02/13 01:57:32;;;;;;;9.55;6.25;;;3.10;73.00;;;;;;5052393;28;20090;-61
2022/02/13 01:59:57;;;;;;;10.50;6.85;;;3.10;73.00;;;;;;5052337;28;20017;-61
2022/02/13 02:02:23;;;;;;;9.05;5.88;;;3.10;73.10;;;;;;5066266;28;20024;-61
2022/02/13 02:04:53;;;;;;;8.02;5.30;;;3.10;73.00;;;;;;5052016;28;20025;-61
2022/02/13 02:07:20;;;;;;;12.15;6.28;;;3.10;72.80;;;;;;5048297;28;20060;-61
2022/02/13 02:09:46;;;;;;;11.25;6.82;;;3.10;72.80;;;;;;5052619;28;20017;-61
2022/02/13 02:12:12;;;;;;;10.15;7.25;;;3.10;72.70;;;;;;5053386;28;20028;-61
2022/02/13 02:14:37;;;;;;;10.38;7.55;;;3.10;72.80;;;;;;5052449;28;20029;-61
2022/02/13 02:17:03;;;;;;;9.35;6.30;;;3.00;73.00;;;;;;5052542;28;20025;-61
2022/02/13 02:19:31;;;;;;;12.82;8.20;;;3.00;72.90;;;;;;5052370;28;20512;-61
2022/02/13 02:21:57;;;;;;;11.07;6.63;;;3.00;72.90;;;;;;5052387;28;20036;-61
2022/02/13 02:24:23;;;;;;;10.30;6.35;;;3.00;72.80;;;;;;5056029;28;20369;-61
2022/02/13 02:26:49;;;;;;;9.60;6.65;;;3.00;72.90;;;;;;5062047;28;20108;-61
2022/02/13 02:29:15;;;;;;;9.65;7.10;;;3.00;72.90;;;;;;5072132;28;20396;-61
2022/02/13 02:31:40;;;;;;;12.35;7.28;;;2.90;73.00;;;;;;5066412;28;20056;-61
2022/02/13 02:34:06;;;;;;;12.93;7.07;;;2.90;73.00;;;;;;5055116;28;20055;-61
2022/02/13 02:36:32;;;;;;;14.93;8.57;;;2.90;73.00;;;;;;5052312;28;20083;-61
2022/02/13 02:38:58;;;;;;;11.90;7.38;;;2.90;73.10;;;;;;5052097;28;20025;-61
2022/02/13 02:41:25;;;;;;;11.80;8.30;;;2.80;73.30;;;;;;5058435;28;20028;-60
2022/02/13 02:43:51;;;;;;;15.43;8.60;;;2.80;73.30;;;;;;5053476;28;20120;-61
2022/02/13 02:46:17;;;;;;;12.60;8.00;;;2.80;73.40;;;;;;5052583;28;20108;-61
2022/02/13 02:48:43;;;;;;;12.32;7.32;;;2.80;73.40;;;;;;5052038;28;20033;-61
2022/02/13 02:51:08;;;;;;;10.80;7.60;;;2.80;73.40;;;;;;5052509;28;20047;-61
2022/02/13 02:53:34;;;;;;;15.68;7.93;;;2.80;73.50;;;;;;5052164;28;20025;-61
2022/02/13 02:56:01;;;;;;;11.50;7.47;;;2.80;73.50;;;;;;5061744;28;20032;-61
2022/02/13 02:58:27;;;;;;;11.10;6.53;;;2.70;73.50;;;;;;5072005;28;20059;-61
2022/02/13 03:00:52;;;;;;;12.38;7.22;;;2.70;73.70;;;;;;5041123;28;20060;-61
2022/02/13 03:03:19;;;;;;;9.80;6.85;;;2.70;73.70;;;;;;5064131;28;20021;-61
2022/02/13 03:05:48;;;;;;;10.20;6.47;;;2.70;73.80;;;;;;5065603;28;20024;-61
2022/02/13 03:08:14;;;;;;;11.82;7.50;;;2.60;73.70;;;;;;5068473;28;20033;-61
2022/02/13 03:10:40;;;;;;;13.15;6.78;;;2.60;74.00;;;;;;5074756;28;20037;-61
2022/02/13 03:13:06;;;;;;;10.73;6.13;;;2.60;74.10;;;;;;5070730;28;20039;-61
2022/02/13 03:15:31;;;;;;;11.10;7.22;;;2.70;74.10;;;;;;5075814;28;20032;-61
2022/02/13 03:17:57;;;;;;;9.88;6.57;;;2.70;73.90;;;;;;5075820;28;20032;-61
2022/02/13 03:20:23;;;;;;;11.75;6.20;;;2.70;73.80;;;;;;5072773;28;20025;-61
2022/02/13 03:22:48;;;;;;;10.65;7.80;;;2.80;73.70;;;;;;5061044;28;20123;-61
2022/02/13 03:25:14;;;;;;;8.77;5.95;;;2.80;73.70;;;;;;5075513;28;20021;-61
2022/02/13 03:27:40;;;;;;;9.70;6.07;;;2.80;73.50;;;;;;5075480;28;20030;-61
2022/02/13 03:30:06;;;;;;;13.48;7.22;;;2.80;73.50;;;;;;5075386;28;20550;-61
2022/02/13 03:32:32;;;;;;;9.52;6.32;;;2.70;73.50;;;;;;5066496;28;20489;-61
2022/02/13 03:34:57;;;;;;;10.20;6.40;;;2.70;73.50;;;;;;5060322;28;20087;-61
2022/02/13 03:37:23;;;;;;;9.90;5.82;;;2.70;73.60;;;;;;5055494;28;20025;-61
2022/02/13 03:39:50;;;;;;;8.45;5.72;;;2.60;74.40;;;;;;5055218;28;20524;-61
2022/02/13 03:42:15;;;;;;;8.52;6.10;;;2.60;73.70;;;;;;5055112;28;20025;-61
2022/02/13 03:44:42;;;;;;;11.55;7.95;;;2.60;73.80;;;;;;5054923;28;20036;-61
2022/02/13 03:47:08;;;;;;;8.57;5.72;;;2.60;74.00;;;;;;5055111;28;20108;-61
2022/02/13 03:49:34;;;;;;;8.18;5.93;;;2.60;74.00;;;;;;5055090;28;20104;-61
2022/02/13 03:52:00;;;;;;;12.23;6.53;;;2.60;73.90;;;;;;5054525;28;20060;-61
2022/02/13 03:54:26;;;;;;;8.73;6.70;;;2.60;74.00;;;;;;5068495;28;20065;-61
2022/02/13 03:56:51;;;;;;;9.68;6.10;;;2.60;74.00;;;;;;5061522;28;20031;-61
2022/02/13 03:59:17;;;;;;;8.82;5.95;;;2.50;73.90;;;;;;5071128;28;20209;-61
2022/02/13 04:01:43;;;;;;;11.10;6.10;;;2.50;74.00;;;;;;5041387;28;20044;-61
2022/02/13 04:04:08;;;;;;;8.05;5.47;;;2.50;74.10;;;;;;5053258;28;20028;-61
2022/02/13 04:06:34;;;;;;;9.82;5.80;;;2.50;74.20;;;;;;5044019;28;20033;-61
2022/02/13 04:09:00;;;;;;;9.93;5.30;;;2.50;74.10;;;;;;5054014;28;20170;-61
2022/02/13 04:11:26;;;;;;;7.95;5.43;;;2.50;74.00;;;;;;5057816;28;20107;-61
2022/02/13 04:13:51;;;;;;;16.73;7.03;;;2.50;73.90;;;;;;5065296;28;20551;-61
2022/02/13 04:16:17;;;;;;;7.72;5.25;;;2.50;73.90;;;;;;5073817;28;20025;-61
2022/02/13 04:18:43;;;;;;;6.93;5.60;;;2.50;73.90;;;;;;5074528;28;20028;-61
2022/02/13 04:21:09;;;;;;;9.93;6.85;;;2.40;73.90;;;;;;5054259;28;20534;-61
2022/02/13 04:23:35;;;;;;;8.48;5.85;;;2.40;74.00;;;;;;5053767;28;20439;-61
2022/02/13 04:26:01;;;;;;;10.80;6.20;;;2.40;74.10;;;;;;5054476;28;20469;-61
2022/02/13 04:28:27;;;;;;;9.68;5.95;;;2.40;74.10;;;;;;5054400;28;20381;-61
2022/02/13 04:30:56;;;;;;;10.75;6.80;;;2.40;74.10;;;;;;5070183;28;20036;-61
2022/02/13 04:33:22;;;;;;;9.50;5.50;;;2.40;74.10;;;;;;5064737;28;20546;-61
2022/02/13 04:35:48;;;;;;;10.70;6.03;;;2.30;74.10;;;;;;5053955;28;20440;-61
2022/02/13 04:38:14;;;;;;;9.27;6.22;;;2.30;74.20;;;;;;5054366;28;20036;-61
2022/02/13 04:40:40;;;;;;;8.00;6.00;;;2.30;74.30;;;;;;5053998;28;20032;-61
2022/02/13 04:43:06;;;;;;;8.95;6.63;;;2.30;74.30;;;;;;5054134;28;20017;-61
2022/02/13 04:45:32;;;;;;;9.27;6.53;;;2.20;74.40;;;;;;5055086;28;20032;-61
2022/02/13 04:47:58;;;;;;;9.38;6.60;;;2.20;74.40;;;;;;5062408;28;20048;-61
2022/02/13 04:50:23;;;;;;;10.98;7.20;;;2.20;74.60;;;;;;5073911;28;20020;-61
2022/02/13 04:52:53;;;;;;;10.35;5.95;;;2.10;75.30;;;;;;5060788;28;20107;-61
2022/02/13 04:55:20;;;;;;;8.90;6.65;;;2.10;74.70;;;;;;5063515;28;20148;-61
2022/02/13 04:57:47;;;;;;;11.43;5.97;;;2.10;74.60;;;;;;5073747;28;20020;-61
2022/02/13 05:00:14;;;;;;;8.10;5.93;;;2.10;74.90;;;;;;5044220;28;20022;-61
2022/02/13 05:02:41;;;;;;;8.63;5.60;;;2.10;74.90;;;;;;5040609;28;20380;-61
2022/02/13 05:05:08;;;;;;;12.65;6.63;;;2.10;74.80;;;;;;5053468;28;20109;-61
2022/02/13 05:07:34;;;;;;;8.38;6.00;;;2.10;74.80;;;;;;5053599;28;20021;-61
2022/02/13 05:10:00;;;;;;;11.45;6.13;;;2.10;74.90;;;;;;5049746;28;20033;-61
2022/02/13 05:12:25;;;;;;;9.88;6.05;;;2.10;74.90;;;;;;5042357;28;20033;-61
2022/02/13 05:14:52;;;;;;;8.57;5.75;;;2.10;75.00;;;;;;5053425;28;20056;-61
2022/02/13 05:17:18;;;;;;;11.63;6.88;;;2.10;75.10;;;;;;5053564;28;20370;-61
2022/02/13 05:19:43;;;;;;;11.02;6.75;;;2.10;75.00;;;;;;5053752;28;20150;-61
2022/02/13 05:22:09;;;;;;;12.20;7.35;;;2.00;75.10;;;;;;5052286;28;20586;-61
2022/02/13 05:24:36;;;;;;;10.98;7.55;;;2.00;75.10;;;;;;5053304;28;20493;-61
2022/02/13 05:27:04;;;;;;;11.00;6.68;;;2.00;75.10;;;;;;5053167;28;20070;-61
2022/02/13 05:29:33;;;;;;;11.63;6.65;;;2.00;75.10;;;;;;5053120;28;20029;-61
2022/02/13 05:32:00;;;;;;;8.18;6.43;;;2.00;75.10;;;;;;5053095;28;20052;-61
2022/02/13 05:34:25;;;;;;;9.05;5.47;;;2.10;75.40;;;;;;5051791;28;20400;-61
2022/02/13 05:36:51;;;;;;;8.43;6.07;;;2.10;75.30;;;;;;5052899;28;20107;-60
2022/02/13 05:39:17;;;;;;;7.10;5.60;;;2.10;75.40;;;;;;5053297;28;20025;-61
2022/02/13 05:41:44;;;;;;;9.35;5.68;;;2.10;75.50;;;;;;5053249;28;20025;-61
2022/02/13 05:44:10;;;;;;;7.95;5.32;;;2.20;75.60;;;;;;5052989;28;20441;-61
2022/02/13 05:46:35;;;;;;;10.25;6.43;;;2.30;75.50;;;;;;5053221;28;20022;-61
2022/02/13 05:49:02;;;;;;;12.13;6.60;;;2.30;75.60;;;;;;5052874;28;20493;-61
2022/02/13 05:51:28;;;;;;;12.77;6.47;;;2.40;75.50;;;;;;5053133;28;20489;-61
2022/02/13 05:53:54;;;;;;;9.35;5.68;;;2.50;75.60;;;;;;5052928;28;20060;-61
2022/02/13 05:56:20;;;;;;;9.93;6.72;;;2.60;75.40;;;;;;5064796;28;20541;-61
2022/02/13 05:58:47;;;;;;;9.73;7.13;;;2.80;75.40;;;;;;5068217;28;20445;-61
2022/02/13 06:01:13;;;;;;;11.70;6.30;;;2.90;75.10;;;;;;5048768;28;20488;-61
2022/02/13 06:03:39;;;;;;;10.25;7.05;;;3.00;74.70;;;;;;5053245;28;20418;-61
2022/02/13 06:06:05;;;;;;;9.65;7.35;;;3.10;74.40;;;;;;5052541;28;20055;-61
2022/02/13 06:08:31;;;;;;;9.70;6.40;;;3.20;74.30;;;;;;5047893;28;20032;-61
2022/02/13 06:10:57;;;;;;;10.23;8.20;;;3.30;74.10;;;;;;5052806;28;20481;-61
2022/02/13 06:13:23;;;;;;;9.95;7.65;;;3.50;73.80;;;;;;5052611;28;20100;-61
2022/02/13 06:15:49;;;;;;;9.77;7.22;;;3.60;73.50;;;;;;5056141;28;20104;-61
2022/02/13 06:18:15;;;;;;;10.05;7.05;;;3.70;73.20;;;;;;5040654;28;20022;-61
2022/02/13 06:20:40;;;;;;;10.63;7.63;;;3.80;72.90;;;;;;5072398;28;20531;-61
2022/02/13 06:23:10;;;;;;;11.70;6.97;;;3.80;72.70;;;;;;5065345;28;20173;-61
2022/02/13 06:25:37;;;;;;;9.23;6.57;;;3.90;72.60;;;;;;5055805;28;20025;-61
2022/02/13 06:28:03;;;;;;;9.18;6.05;;;3.90;72.50;;;;;;5060963;28;20025;-61
2022/02/13 06:30:29;;;;;;;10.40;7.25;;;4.00;72.50;;;;;;5072599;28;20500;-61
2022/02/13 06:32:57;;;;;;;8.52;6.90;;;4.10;72.30;;;;;;5072367;28;20099;-61
2022/02/13 06:35:24;;;;;;;11.05;7.22;;;4.20;72.10;;;;;;5052418;28;20276;-61
2022/02/13 06:37:50;;;;;;;9.60;7.35;;;4.20;72.00;;;;;;5053325;28;20114;-61
2022/02/13 06:40:15;;;;;;;10.50;7.40;;;4.30;71.80;;;;;;5056488;28;20472;-61
2022/02/13 06:42:41;;;;;;;12.88;8.73;;;4.30;71.80;;;;;;5056618;28;20024;-61
2022/02/13 06:45:07;;;;;;;10.50;7.57;;;4.40;71.70;;;;;;5056330;28;20086;-61
2022/02/13 06:47:33;;;;;;;9.35;7.05;;;4.50;71.70;;;;;;5055369;28;20028;-61
2022/02/13 06:49:59;;;;;;;10.93;7.50;;;4.50;71.20;;;;;;5056240;28;20477;-61
2022/02/13 06:52:24;;;;;;;9.85;7.63;;;4.60;71.10;;;;;;5061715;28;20025;-61
2022/02/13 06:54:50;;;;;;;12.10;8.43;;;4.60;70.90;;;;;;5056605;28;20057;-61
2022/02/13 06:57:15;;;;;;;9.23;7.85;;;4.70;70.70;;;;;;5073771;28;20025;-61
2022/02/13 06:59:41;;;;;;;13.25;8.43;;;4.70;70.60;;;;;;5056538;28;20142;-61
2022/02/13 07:02:10;;;;;;;10.90;8.68;;;4.80;70.40;;;;;;5054109;28;20029;-61
2022/02/13 07:04:37;;;;;;;10.05;8.35;;;4.80;70.30;;;;;;5067309;28;20025;-61
2022/02/13 07:07:04;;;;;;;13.27;8.75;;;4.80;70.10;;;;;;5075942;28;20035;-61
2022/02/13 07:09:30;;;;;;;11.85;8.70;;;4.90;70.10;;;;;;5076473;28;20024;-61
2022/02/13 07:11:55;;;;;;;9.48;7.55;;;4.90;69.80;;;;;;5076007;28;20593;-61
2022/02/13 07:14:21;;;;;;;11.45;8.30;;;4.90;69.70;;;;;;5076056;28;20476;-61
2022/02/13 07:16:47;;;;;;;9.90;8.40;;;4.90;69.70;;;;;;5076002;28;20024;-61
2022/02/13 07:19:12;;;;;;;11.77;9.25;;;4.90;69.90;;;;;;5068971;28;20103;-61
2022/02/13 07:21:38;;;;;;;10.35;8.32;;;4.90;69.70;;;;;;5052569;28;20024;-61
2022/02/13 07:24:04;;;;;;;12.35;8.60;;;4.90;69.70;;;;;;5055493;28;20055;-61
2022/02/13 07:26:30;;;;;;;12.75;8.57;;;4.80;69.40;;;;;;5054869;28;20037;-61
2022/02/13 07:29:01;;;;;;;11.18;8.75;;;4.80;69.40;;;;;;5055557;28;20040;-61
2022/02/13 07:31:28;;;;;;;11.00;8.10;;;4.80;69.30;;;;;;5056028;28;20473;-61
2022/02/13 07:33:55;;;;;;;12.75;8.85;;;4.90;69.30;;;;;;5055579;28;20056;-61
2022/02/13 07:36:20;;;;;;;10.95;8.52;;;4.80;69.30;;;;;;5055739;28;20416;-61
2022/02/13 07:38:46;;;;;;;14.85;9.07;;;4.90;69.30;;;;;;5055692;28;20025;-61
2022/02/13 07:41:12;;;;;;;10.55;8.57;;;4.90;69.10;;;;;;5055330;28;20017;-61
2022/02/13 07:43:37;;;;;;;12.57;9.05;;;4.90;68.90;;;;;;5067644;28;20052;-61
2022/02/13 07:46:04;;;;;;;10.73;8.00;;;4.90;68.80;;;;;;5054685;28;20064;-61
2022/02/13 07:48:30;;;;;;;11.20;8.40;;;4.90;68.70;;;;;;5054599;28;20040;-61
2022/02/13 07:50:56;;;;;;;14.23;8.23;;;4.90;68.50;;;;;;5059496;28;20041;-61
2022/02/13 07:53:22;;;;;;;12.50;8.27;;;4.90;68.50;;;;;;5054201;28;20040;-61
2022/02/13 07:55:48;;;;;;;10.38;8.43;;;5.00;68.30;;;;;;5057365;28;20029;-61
2022/02/13 07:58:13;;;;;;;9.90;7.70;;;4.90;68.30;;;;;;5055966;28;20032;-61
2022/02/13 08:00:39;;;;;;;10.85;7.80;;;4.90;68.10;;;;;;5061224;28;20489;-61
2022/02/13 08:03:05;;;;;;;11.95;8.00;;;5.00;68.00;;;;;;5068436;28;20111;-61
2022/02/13 08:05:31;;;;;;;12.52;9.48;;;5.00;67.90;;;;;;5054487;28;20021;-61
2022/02/13 08:07:56;;;;;;;18.98;13.90;;;5.00;67.90;;;;;;5056373;28;20021;-61
2022/02/13 08:10:22;;;;;;;14.40;9.65;;;5.00;67.70;;;;;;5054937;28;20489;-61
2022/02/13 08:12:47;;;;;;;11.70;8.05;;;5.10;67.90;;;;;;5062740;28;20107;-61
2022/02/13 08:15:14;;;;;;;12.57;7.88;;;5.10;67.70;;;;;;5062176;28;20032;-61
2022/02/13 08:17:40;;;;;;;8.50;6.53;;;5.10;67.60;;;;;;5056918;28;20033;-61
2022/02/13 08:20:07;;;;;;;8.80;6.55;;;5.10;67.20;;;;;;5065867;28;20032;-61
2022/02/13 08:22:37;;;;;;;8.40;6.22;;;5.10;66.90;;;;;;5046588;28;20033;-61
2022/02/13 08:25:04;;;;;;;10.13;6.47;;;5.10;66.60;;;;;;5066461;28;20024;-61
2022/02/13 08:27:30;;;;;;;9.15;6.47;;;5.20;66.30;;;;;;5049935;28;20025;-61
2022/02/13 08:29:56;;;;;;;9.48;6.95;;;5.20;66.50;;;;;;5053868;28;20112;-61
2022/02/13 08:32:23;;;;;;;11.20;7.63;;;5.20;66.60;;;;;;5061207;28;20340;-61
2022/02/13 08:34:49;;;;;;;12.18;7.07;;;5.20;66.20;;;;;;5065640;28;20102;-61
2022/02/13 08:37:15;;;;;;;10.65;7.43;;;5.20;66.10;;;;;;5055045;28;20017;-61
2022/02/13 08:39:42;;;;;;;9.57;6.65;;;5.30;66.10;;;;;;5059519;28;20037;-61
2022/02/13 08:42:08;;;;;;;12.80;7.53;;;5.30;65.80;;;;;;5052480;28;20040;-61
2022/02/13 08:44:34;;;;;;;9.38;6.30;;;5.30;65.70;;;;;;5054074;28;20021;-61
2022/02/13 08:46:59;;;;;;;8.30;5.75;;;5.30;65.50;;;;;;5054048;28;20104;-61
2022/02/13 08:49:25;;;;;;;7.55;5.32;;;5.40;64.90;;;;;;5053840;28;20138;-61
2022/02/13 08:51:51;;;;;;;6.72;5.15;;;5.40;64.50;;;;;;5069750;28;20407;-61
2022/02/13 08:54:16;;;;;;;8.93;5.60;;;5.40;64.10;;;;;;5051735;28;20096;-61
2022/02/13 08:56:42;;;;;;;6.90;4.32;;;5.30;63.90;;;;;;5058385;28;20079;-61
2022/02/13 08:59:07;;;;;;;7.15;4.95;;;5.30;63.70;;;;;;5073995;28;20025;-61
2022/02/13 09:01:34;;;;;;;6.45;4.40;;;5.30;63.40;;;;;;5055802;28;20017;-61
2022/02/13 09:04:00;;;;;;;6.38;4.22;;;5.30;62.90;;;;;;5053975;28;20124;-61
2022/02/13 09:06:26;;;;;;;6.03;4.38;;;5.30;62.70;;;;;;5053618;28;20056;-61
2022/02/13 09:08:51;;;;;;;6.55;4.80;;;5.30;62.70;;;;;;5053443;28;20119;-61
2022/02/13 09:11:17;;;;;;;9.35;5.30;;;5.30;62.50;;;;;;5053649;28;20385;-61
2022/02/13 09:13:43;;;;;;;6.70;4.68;;;5.30;62.50;;;;;;5053217;28;20063;-61
2022/02/13 09:16:08;;;;;;;7.03;4.60;;;5.30;62.30;;;;;;5053788;28;20029;-61
2022/02/13 09:18:35;;;;;;;7.25;4.32;;;5.30;62.40;;;;;;5053288;28;20021;-61
2022/02/13 09:21:01;;;;;;;6.70;4.65;;;5.40;62.30;;;;;;5053245;28;20029;-61
2022/02/13 09:23:27;;;;;;;5.82;4.20;;;5.40;62.60;;;;;;5053843;28;20040;-61
2022/02/13 09:25:52;;;;;;;7.72;4.45;;;5.30;61.70;;;;;;5053846;28;20029;-61
2022/02/13 09:28:18;;;;;;;5.45;3.88;;;5.30;61.90;;;;;;5053346;28;20033;-61
2022/02/13 09:30:47;;;;;;;6.85;4.32;;;5.30;62.00;;;;;;5053381;28;20032;-61
2022/02/13 09:33:17;;;;;;;5.78;4.00;;;5.40;61.90;;;;;;5042281;28;20032;-61
2022/02/13 09:35:47;;;;;;;6.88;3.92;;;5.40;61.70;;;;;;5052910;28;20045;-61
2022/02/13 09:38:15;;;;;;;5.85;4.07;;;5.40;61.60;;;;;;5053019;28;20032;-61
2022/02/13 09:40:47;;;;;;;9.95;4.65;;;5.50;61.70;;;;;;5053148;28;20049;-61
2022/02/13 09:43:15;;;;;;;5.97;4.37;;;5.40;61.20;;;;;;5055365;28;20029;-61
2022/02/13 09:45:43;;;;;;;8.60;4.53;;;5.50;61.10;;;;;;5054214;28;20039;-60
2022/02/13 09:48:16;;;;;;;6.43;4.60;;;5.50;60.80;;;;;;5054343;28;20067;-61
2022/02/13 09:50:41;;;;;;;5.18;4.00;;;5.50;60.70;;;;;;5066653;28;20395;-61
2022/02/13 09:53:07;;;;;;;5.45;3.80;;;5.60;60.60;;;;;;5058481;28;20021;-61
2022/02/13 09:55:34;;;;;;;5.43;3.92;;;5.60;60.20;;;;;;5053085;28;20435;-61
2022/02/13 09:58:00;;;;;;;5.55;3.75;;;5.60;59.80;;;;;;5072439;28;20033;-61
2022/02/13 10:00:47;;;;;;;5.22;3.55;;;5.70;59.50;;;;;;5060485;28;20078;-61
2022/02/13 10:03:18;;;;;;;5.13;3.65;;;5.70;59.40;;;;;;5052985;28;20017;-61
2022/02/13 10:05:44;;;;;;;5.43;4.00;;;5.80;59.50;;;;;;5052925;28;20021;-61
2022/02/13 10:08:10;;;;;;;6.07;4.00;;;5.80;59.40;;;;;;5052321;28;20258;-61
2022/02/13 10:10:35;;;;;;;5.72;3.88;;;5.80;59.20;;;;;;5058393;28;20104;-61
2022/02/13 10:13:01;;;;;;;5.85;3.80;;;5.80;58.90;;;;;;5055507;28;20051;-61
2022/02/13 10:15:30;;;;;;;5.10;3.72;;;5.80;58.80;;;;;;5060375;28;20025;-61
2022/02/13 10:18:07;;;;;;;5.90;3.65;;;5.80;58.50;;;;;;5052727;28;20094;-61
2022/02/13 10:20:40;;;;;;;6.03;3.95;;;5.80;58.20;;;;;;5052780;28;20074;-61
2022/02/13 10:23:11;;;;;;;6.40;4.32;;;5.80;58.20;;;;;;5052812;28;20028;-61
2022/02/13 10:25:38;;;;;;;5.00;3.90;;;5.80;58.10;;;;;;5052583;28;20062;-61
2022/02/13 10:28:14;;;;;;;6.28;3.90;;;5.80;58.30;;;;;;5051631;28;20293;-61
2022/02/13 10:30:42;;;;;;;5.35;3.65;;;5.80;58.00;;;;;;5050074;28;20033;-61
2022/02/13 10:33:15;;;;;;;5.38;4.10;;;5.80;58.10;;;;;;5053431;28;20426;-61
2022/02/13 10:35:41;;;;;;;8.13;4.03;;;5.90;58.70;;;;;;5064582;28;20057;-61
2022/02/13 10:38:07;;;;;;;4.68;3.70;;;5.90;58.00;;;;;;5050573;28;20032;-61
2022/02/13 10:40:33;;;;;;;5.00;4.13;;;5.90;57.80;;;;;;5051211;28;20222;-61
2022/02/13 10:43:09;;;;;;;5.70;3.90;;;5.90;57.90;;;;;;5064256;28;20096;-61
2022/02/13 10:45:40;;;;;;;5.88;4.32;;;5.90;57.80;;;;;;5044656;28;20013;-61
2022/02/13 10:48:07;;;;;;;5.25;3.78;;;5.90;57.80;;;;;;5061878;28;20025;-61
2022/02/13 10:50:38;;;;;;;5.07;3.78;;;5.90;57.60;;;;;;5051228;28;20040;-61
2022/02/13 10:53:05;;;;;;;5.97;4.20;;;5.90;57.40;;;;;;5057484;28;20038;-61
2022/02/13 10:55:34;;;;;;;5.80;4.00;;;5.90;57.30;;;;;;5045288;28;20028;-61
2022/02/13 10:58:00;;;;;;;6.88;4.40;;;6.00;57.50;;;;;;5047627;28;20105;-61
2022/02/13 11:00:29;;;;;;;5.95;4.20;;;6.00;57.60;;;;;;5058921;28;20025;-61
2022/02/13 11:02:55;;;;;;;5.82;4.22;;;6.00;57.60;;;;;;5058112;28;20496;-61
2022/02/13 11:05:22;;;;;;;6.40;4.28;;;6.00;57.50;;;;;;5051984;28;20013;-61
2022/02/13 11:07:50;;;;;;;5.32;3.65;;;6.00;57.30;;;;;;5038760;28;20021;-61
2022/02/13 11:10:22;;;;;;;7.30;4.28;;;6.00;57.30;;;;;;5052100;28;20129;-61
2022/02/13 11:12:50;;;;;;;7.47;4.18;;;6.10;57.20;;;;;;5064242;28;20024;-61
2022/02/13 11:15:20;;;;;;;5.43;4.05;;;6.10;57.10;;;;;;5051637;28;20076;-61
2022/02/13 11:17:49;;;;;;;6.40;4.30;;;6.00;57.00;;;;;;5053255;28;20056;-61
2022/02/13 11:20:16;;;;;;;8.95;4.47;;;6.10;57.10;;;;;;5061786;28;20021;-61
2022/02/13 11:22:43;;;;;;;7.65;4.60;;;6.00;57.00;;;;;;5057135;28;20036;-61
2022/02/13 11:25:10;;;;;;;6.70;4.20;;;6.00;56.90;;;;;;5059235;28;20489;-61
2022/02/13 11:27:57;;;;;;;7.00;3.90;;;6.10;56.90;;;;;;5054102;28;20021;-61
2022/02/13 11:30:43;;;;;;;7.15;4.18;;;6.10;56.90;;;;;;5047161;28;20072;-61
2022/02/13 11:33:12;;;;;;;6.05;3.70;;;6.10;56.60;;;;;;5055770;28;20476;-61
2022/02/13 11:36:00;;;;;;;5.78;3.63;;;6.10;56.30;;;;;;5065189;28;20442;-61
2022/02/13 11:38:44;;;;;;;5.18;4.03;;;6.10;55.90;;;;;;5075236;28;20045;-61
2022/02/13 11:41:10;;;;;;;6.38;4.10;;;6.10;56.00;;;;;;5070475;28;20025;-61
2022/02/13 11:44:02;;;;;;;6.80;4.55;;;6.10;55.90;;;;;;5055464;28;20469;-61
2022/02/13 11:46:27;;;;;;;6.57;4.25;;;6.10;55.90;;;;;;5047264;28;20067;-61
2022/02/13 11:48:57;;;;;;;5.40;3.97;;;6.10;56.00;;;;;;5063844;28;20075;-61
2022/02/13 11:51:45;;;;;;;7.32;4.30;;;6.10;55.80;;;;;;5061007;28;20037;-61
2022/02/13 11:54:40;;;;;;;6.40;4.10;;;6.10;55.70;;;;;;5072859;28;20369;-61
2022/02/13 11:57:10;;;;;;;5.60;3.67;;;6.10;55.80;;;;;;5050166;28;20059;-61
2022/02/13 12:00:06;;;;;;;6.07;3.70;;;6.10;55.60;;;;;;5055327;28;20029;-61
2022/02/13 12:02:41;;;;;;;4.97;3.88;;;6.10;55.70;;;;;;5045640;28;20045;-61
2022/02/13 12:05:10;;;;;;;5.93;3.88;;;6.10;55.60;;;;;;5055493;28;20583;-61
2022/02/13 12:07:58;;;;;;;5.00;3.60;;;6.10;55.60;;;;;;5055344;28;20021;-61
2022/02/13 12:10:29;;;;;;;6.65;3.78;;;6.10;55.60;;;;;;5054675;28;20404;-61
2022/02/13 12:13:28;;;;;;;6.30;3.90;;;6.10;56.20;;;;;;5054612;28;20056;-61
2022/02/13 12:15:59;;;;;;;6.30;3.70;;;6.10;55.50;;;;;;5053600;28;20115;-61
2022/02/13 12:18:25;;;;;;;5.60;3.88;;;6.10;55.60;;;;;;5055043;28;20025;-61
2022/02/13 12:20:59;;;;;;;6.03;3.83;;;6.10;55.50;;;;;;5058616;28;20083;-61
2022/02/13 12:23:25;;;;;;;6.30;4.55;;;6.10;55.60;;;;;;5054519;28;20063;-61
2022/02/13 12:25:51;;;;;;;5.07;4.15;;;6.10;55.60;;;;;;5054642;28;20028;-61
2022/02/13 12:28:18;;;;;;;4.95;3.92;;;6.10;55.60;;;;;;5047428;28;20108;-61
2022/02/13 12:30:55;;;;;;;5.43;3.88;;;6.10;55.50;;;;;;5050326;28;20025;-61
2022/02/13 12:33:25;;;;;;;5.50;3.63;;;6.20;55.60;;;;;;5054763;28;20032;-61
2022/02/13 12:35:52;;;;;;;4.65;3.53;;;6.10;55.60;;;;;;5053412;28;20053;-61
2022/02/13 12:38:18;;;;;;;4.82;3.50;;;6.20;55.60;;;;;;5054228;28;20025;-61
2022/02/13 12:40:44;;;;;;;4.95;4.05;;;6.20;55.50;;;;;;5054453;28;20075;-61
2022/02/13 12:43:29;;;;;;;7.20;3.30;;;6.20;55.60;;;;;;5061876;28;20020;-61
2022/02/13 12:45:56;;;;;;;4.03;3.13;;;6.20;55.20;;;;;;5074399;28;20030;-61
2022/02/13 12:48:28;;;;;;;4.60;3.20;;;6.10;54.90;;;;;;5074223;28;20032;-61
2022/02/13 12:50:56;;;;;;;5.32;3.38;;;6.10;54.80;;;;;;5058737;28;20032;-61
2022/02/13 12:53:27;;;;;;;4.65;3.40;;;6.10;54.70;;;;;;5058972;28;20486;-61